createdAt,value
2018-04-06T00:02:20.807Z,5.00
2018-04-06T00:04:48.397Z,4.80
2018-04-06T00:07:16.693Z,4.60
2018-04-06T00:09:44.282Z,4.50
2018-04-06T00:12:11.774Z,4.60
2018-04-06T00:14:39.264Z,4.60
2018-04-06T00:17:06.784Z,4.60
2018-04-06T00:19:34.507Z,4.50
2018-04-06T00:22:02.063Z,4.40
2018-04-06T00:24:29.568Z,4.40
2018-04-06T00:26:57.083Z,4.30
2018-04-06T00:29:24.609Z,4.30
2018-04-06T00:31:52.869Z,4.40
2018-04-06T00:34:20.371Z,4.30
2018-04-06T00:36:47.877Z,4.40
2018-04-06T00:39:15.438Z,4.40
2018-04-06T00:41:42.933Z,4.40
2018-04-06T00:44:10.461Z,4.30
2018-04-06T00:46:38.016Z,4.40
2018-04-06T00:49:05.578Z,4.40
2018-04-06T00:51:33.145Z,4.40
2018-04-06T00:54:00.643Z,4.50
2018-04-06T00:56:28.169Z,4.40
2018-04-06T00:58:55.662Z,4.30
2018-04-06T01:01:23.190Z,4.20
2018-04-06T01:03:50.697Z,4.10
2018-04-06T01:06:18.222Z,4.10
2018-04-06T01:08:46.487Z,4.30
2018-04-06T01:11:13.993Z,4.20
2018-04-06T01:13:41.523Z,4.30
2018-04-06T01:16:09.777Z,4.30
2018-04-06T01:18:37.513Z,4.20
2018-04-06T01:21:05.003Z,4.30
2018-04-06T01:23:32.500Z,4.30
2018-04-06T01:26:00.036Z,4.40
2018-04-06T01:28:27.538Z,4.30
2018-04-06T01:30:55.098Z,4.40
2018-04-06T01:33:22.600Z,4.30
2018-04-06T01:35:50.096Z,4.30
2018-04-06T01:38:17.615Z,4.50
2018-04-06T01:40:45.260Z,4.50
2018-04-06T01:43:12.830Z,4.50
2018-04-06T01:45:40.333Z,4.50
2018-04-06T01:48:08.646Z,4.50
2018-04-06T01:50:36.190Z,4.40
2018-04-06T01:53:03.711Z,4.50
2018-04-06T01:55:32.042Z,4.30
2018-04-06T01:58:00.324Z,4.30
2018-04-06T02:00:27.888Z,4.20
2018-04-06T02:02:55.388Z,4.20
2018-04-06T02:05:22.899Z,4.30
2018-04-06T02:07:50.386Z,4.40
2018-04-06T02:10:17.901Z,4.40
2018-04-06T02:12:45.447Z,4.50
2018-04-06T02:15:12.967Z,4.40
2018-04-06T02:17:40.504Z,4.30
2018-04-06T02:20:08.013Z,4.40
2018-04-06T02:22:36.280Z,4.50
2018-04-06T02:25:03.784Z,4.40
2018-04-06T02:27:31.278Z,4.40
2018-04-06T02:29:58.798Z,4.40
2018-04-06T02:32:26.283Z,4.30
2018-04-06T02:34:53.871Z,4.30
2018-04-06T02:37:21.356Z,4.10
2018-04-06T02:39:49.641Z,4.10
2018-04-06T02:42:17.137Z,4.00
2018-04-06T02:44:44.633Z,4.20
2018-04-06T02:47:12.917Z,4.10
2018-04-06T02:49:41.182Z,4.00
2018-04-06T02:52:08.708Z,3.90
2018-04-06T02:54:36.199Z,4.00
2018-04-06T02:57:03.936Z,4.10
2018-04-06T02:59:31.428Z,4.10
2018-04-06T03:01:58.927Z,4.00
2018-04-06T03:04:26.455Z,4.00
2018-04-06T03:06:54.720Z,4.00
2018-04-06T03:09:22.256Z,3.90
2018-04-06T03:11:49.711Z,3.90
2018-04-06T03:14:17.228Z,3.70
2018-04-06T03:16:45.482Z,3.90
2018-04-06T03:19:12.974Z,3.80
2018-04-06T03:21:40.473Z,3.90
2018-04-06T03:24:07.974Z,3.90
2018-04-06T03:26:35.472Z,3.90
2018-04-06T03:29:03.755Z,3.70
2018-04-06T03:31:31.240Z,3.60
2018-04-06T03:33:58.740Z,4.00
2018-04-06T03:36:26.227Z,3.90
2018-04-06T03:38:53.763Z,3.90
2018-04-06T03:41:21.275Z,3.90
2018-04-06T03:43:48.766Z,3.90
2018-04-06T03:46:17.024Z,3.90
2018-04-06T03:48:44.541Z,3.80
2018-04-06T03:51:12.039Z,3.90
2018-04-06T03:53:40.331Z,3.80
2018-04-06T03:56:08.603Z,3.90
2018-04-06T03:58:36.884Z,3.80
2018-04-06T04:01:05.139Z,3.80
2018-04-06T04:03:32.642Z,3.70
2018-04-06T04:06:00.135Z,3.80
2018-04-06T04:08:27.644Z,3.90
2018-04-06T04:10:55.908Z,3.80
2018-04-06T04:13:23.665Z,3.70
2018-04-06T04:15:51.155Z,3.70
2018-04-06T04:18:19.434Z,3.90
2018-04-06T04:20:47.688Z,3.90
2018-04-06T04:23:15.981Z,3.80
2018-04-06T04:25:44.234Z,3.90
2018-04-06T04:28:11.730Z,3.80
2018-04-06T04:30:39.219Z,3.80
2018-04-06T04:33:06.723Z,3.90
2018-04-06T04:35:34.224Z,3.90
2018-04-06T04:38:01.771Z,3.90
2018-04-06T04:40:29.265Z,3.90
2018-04-06T04:42:56.776Z,4.00
2018-04-06T04:45:24.288Z,3.90
2018-04-06T04:47:51.795Z,3.80
2018-04-06T04:50:20.043Z,3.80
2018-04-06T04:52:47.543Z,3.70
2018-04-06T04:55:15.278Z,3.80
2018-04-06T04:57:42.787Z,3.80
2018-04-06T05:00:10.289Z,3.70
2018-04-06T05:02:37.800Z,3.80
2018-04-06T05:05:05.318Z,3.80
2018-04-06T05:07:33.640Z,3.90
2018-04-06T05:10:01.135Z,3.80
2018-04-06T05:12:28.653Z,3.90
2018-04-06T05:14:56.152Z,3.90
2018-04-06T05:17:23.662Z,3.90
2018-04-06T05:19:51.156Z,3.90
2018-04-06T05:22:18.654Z,4.00
2018-04-06T05:24:47.140Z,4.60
2018-04-06T05:27:15.416Z,4.80
2018-04-06T05:29:43.663Z,5.00
2018-04-06T05:32:11.173Z,4.90
2018-04-06T05:34:38.656Z,5.10
2018-04-06T05:37:06.172Z,5.20
2018-04-06T05:39:33.680Z,5.30
2018-04-06T05:42:01.191Z,5.20
2018-04-06T05:44:29.468Z,5.00
2018-04-06T05:46:57.735Z,4.80
2018-04-06T05:49:25.219Z,4.80
2018-04-06T05:51:52.742Z,4.80
2018-04-06T05:54:20.222Z,4.70
2018-04-06T05:56:48.567Z,4.70
2018-04-06T05:59:16.051Z,4.60
2018-04-06T06:01:44.308Z,4.60
2018-04-06T06:04:11.814Z,4.60
2018-04-06T06:06:39.313Z,4.80
2018-04-06T06:09:06.824Z,4.90
2018-04-06T06:11:34.312Z,5.00
2018-04-06T06:14:01.823Z,4.80
2018-04-06T06:16:29.313Z,4.80
2018-04-06T06:18:56.820Z,5.10
2018-04-06T06:21:24.332Z,5.10
2018-04-06T06:23:51.823Z,5.10
2018-04-06T06:26:19.331Z,5.30
2018-04-06T06:28:47.671Z,5.20
2018-04-06T06:31:15.507Z,5.10
2018-04-06T06:33:42.992Z,5.20
2018-04-06T06:36:10.556Z,5.20
2018-04-06T06:38:38.041Z,5.20
2018-04-06T06:41:06.024Z,5.30
2018-04-06T06:43:33.547Z,5.50
2018-04-06T06:46:01.097Z,5.50
2018-04-06T06:48:28.600Z,5.50
2018-04-06T06:50:56.883Z,5.70
2018-04-06T06:53:25.149Z,5.90
2018-04-06T06:55:52.668Z,5.80
2018-04-06T06:58:20.169Z,6.00
2018-04-06T07:00:47.679Z,6.10
2018-04-06T07:03:15.202Z,5.90
2018-04-06T07:05:42.724Z,5.60
2018-04-06T07:08:10.223Z,5.70
2018-04-06T07:10:38.503Z,5.90
2018-04-06T07:13:05.991Z,5.80
2018-04-06T07:15:33.496Z,6.00
2018-04-06T07:18:01.016Z,6.00
2018-04-06T07:20:28.541Z,6.00
2018-04-06T07:22:56.039Z,6.40
2018-04-06T07:25:23.539Z,6.60
2018-04-06T07:27:51.058Z,6.70
2018-04-06T07:30:18.597Z,6.90
2018-04-06T07:32:46.104Z,6.90
2018-04-06T07:35:13.603Z,6.80
2018-04-06T07:37:41.121Z,6.70
2018-04-06T07:40:08.632Z,6.70
2018-04-06T07:42:36.148Z,6.40
2018-04-06T07:45:03.648Z,6.10
2018-04-06T07:47:31.185Z,6.30
2018-04-06T07:49:58.718Z,6.30
2018-04-06T07:52:26.242Z,6.60
2018-04-06T07:54:53.744Z,6.70
2018-04-06T07:57:21.264Z,6.80
2018-04-06T07:59:48.772Z,6.80
2018-04-06T08:02:17.069Z,6.90
2018-04-06T08:04:45.329Z,6.60
2018-04-06T08:07:14.756Z,6.60
2018-04-06T08:09:42.271Z,6.50
2018-04-06T08:12:09.799Z,6.50
2018-04-06T08:14:37.304Z,6.70
2018-04-06T08:17:04.838Z,6.80
2018-04-06T08:19:32.336Z,6.80
2018-04-06T08:22:00.638Z,7.00
2018-04-06T08:24:28.148Z,6.90
2018-04-06T08:26:55.664Z,7.00
2018-04-06T08:29:23.174Z,7.10
2018-04-06T08:31:50.702Z,7.30
2018-04-06T08:34:18.202Z,7.40
2018-04-06T08:36:45.732Z,7.40
2018-04-06T08:39:13.239Z,7.30
2018-04-06T08:41:40.763Z,7.40
2018-04-06T08:44:08.260Z,7.30
2018-04-06T08:46:35.787Z,7.50
2018-04-06T08:49:03.293Z,7.60
2018-04-06T08:51:30.828Z,7.50
2018-04-06T08:53:59.102Z,7.40
2018-04-06T08:56:27.388Z,7.60
2018-04-06T08:58:55.655Z,7.50
2018-04-06T09:01:23.939Z,7.60
2018-04-06T09:03:52.209Z,7.70
2018-04-06T09:06:20.486Z,7.70
2018-04-06T09:08:47.975Z,7.60
2018-04-06T09:11:15.487Z,7.90
2018-04-06T09:13:42.983Z,8.10
2018-04-06T09:16:10.506Z,8.10
2018-04-06T09:18:37.998Z,8.20
2018-04-06T09:21:05.516Z,8.20
2018-04-06T09:23:33.002Z,8.40
2018-04-06T09:26:01.341Z,8.40
2018-04-06T09:28:28.845Z,8.30
2018-04-06T09:30:57.140Z,8.50
2018-04-06T09:33:24.656Z,8.40
2018-04-06T09:35:52.163Z,8.50
2018-04-06T09:38:19.663Z,8.50
2018-04-06T09:40:47.198Z,8.50
2018-04-06T09:43:14.704Z,8.60
2018-04-06T09:45:43.007Z,8.80
2018-04-06T09:48:10.512Z,8.70
2018-04-06T09:50:38.029Z,8.80
2018-04-06T09:53:05.536Z,8.90
2018-04-06T09:55:33.052Z,8.90
2018-04-06T09:58:00.561Z,8.90
2018-04-06T10:00:32.886Z,9.00
2018-04-06T10:03:03.010Z,9.20
2018-04-06T10:05:30.575Z,9.30
2018-04-06T10:07:58.079Z,9.50
2018-04-06T10:10:26.062Z,9.50
2018-04-06T10:12:53.844Z,9.50
2018-04-06T10:15:22.130Z,9.40
2018-04-06T10:17:50.391Z,9.40
2018-04-06T10:20:17.918Z,9.20
2018-04-06T10:22:45.416Z,9.30
2018-04-06T10:25:13.696Z,9.70
2018-04-06T10:27:41.968Z,9.80
2018-04-06T10:30:10.247Z,9.70
2018-04-06T10:32:38.506Z,9.80
2018-04-06T10:35:06.053Z,9.70
2018-04-06T10:37:33.543Z,9.90
2018-04-06T10:40:01.815Z,9.60
2018-04-06T10:42:30.089Z,9.70
2018-04-06T10:44:57.636Z,9.60
2018-04-06T10:47:25.142Z,9.80
2018-04-06T10:49:53.175Z,9.90
2018-04-06T10:52:20.687Z,10.00
2018-04-06T10:54:48.203Z,10.00
2018-04-06T10:57:16.480Z,10.10
2018-04-06T10:59:44.775Z,10.30
2018-04-06T11:02:13.031Z,10.30
2018-04-06T11:04:40.564Z,10.30
2018-04-06T11:07:08.072Z,10.40
2018-04-06T11:09:35.605Z,10.40
2018-04-06T11:12:03.107Z,10.50
2018-04-06T11:14:30.624Z,10.30
2018-04-06T11:16:58.134Z,10.40
2018-04-06T11:19:26.416Z,10.60
2018-04-06T11:21:53.919Z,10.50
2018-04-06T11:24:21.444Z,10.70
2018-04-06T11:26:48.948Z,10.70
2018-04-06T11:29:16.467Z,10.80
2018-04-06T11:31:43.965Z,10.60
2018-04-06T11:34:11.579Z,10.60
2018-04-06T11:36:39.921Z,10.70
2018-04-06T11:39:08.210Z,10.90
2018-04-06T11:41:35.704Z,10.80
2018-04-06T11:44:03.212Z,11.00
2018-04-06T11:46:31.478Z,10.90
2018-04-06T11:48:58.997Z,10.80
2018-04-06T11:51:26.493Z,10.90
2018-04-06T11:53:54.130Z,10.90
2018-04-06T11:56:21.995Z,10.90
2018-04-06T11:58:49.623Z,11.00
2018-04-06T12:01:17.126Z,11.10
2018-04-06T12:03:44.627Z,11.10
2018-04-06T12:06:12.892Z,11.30
2018-04-06T12:08:41.171Z,11.20
2018-04-06T12:11:09.430Z,11.30
2018-04-06T12:13:36.940Z,11.20
2018-04-06T12:16:04.470Z,11.40
2018-04-06T12:18:32.754Z,11.20
2018-04-06T12:21:01.015Z,11.30
2018-04-06T12:23:28.523Z,11.20
2018-04-06T12:25:56.586Z,11.40
2018-04-06T12:28:24.107Z,11.40
2018-04-06T12:30:51.607Z,11.40
2018-04-06T12:33:19.144Z,11.60
2018-04-06T12:35:47.412Z,11.60
2018-04-06T12:38:15.699Z,11.70
2018-04-06T12:40:43.967Z,11.70
2018-04-06T12:43:12.273Z,11.80
2018-04-06T12:45:40.552Z,12.00
2018-04-06T12:48:08.084Z,11.90
2018-04-06T12:50:36.354Z,12.20
2018-04-06T12:53:04.642Z,12.20
2018-04-06T12:55:32.908Z,12.20
2018-04-06T12:58:00.441Z,12.10
2018-04-06T13:00:27.950Z,12.20
2018-04-06T13:02:55.725Z,12.10
2018-04-06T13:05:23.979Z,12.10
2018-04-06T13:07:52.263Z,12.30
2018-04-06T13:10:20.529Z,12.20
2018-04-06T13:12:48.833Z,12.30
2018-04-06T13:15:16.339Z,12.20
2018-04-06T13:17:43.852Z,12.20
2018-04-06T13:20:11.356Z,12.30
2018-04-06T13:22:38.890Z,12.30
2018-04-06T13:25:06.392Z,12.50
2018-04-06T13:27:33.923Z,12.50
2018-04-06T13:30:01.434Z,12.60
2018-04-06T13:32:29.719Z,12.80
2018-04-06T13:34:57.214Z,12.70
2018-04-06T13:37:24.739Z,12.80
2018-04-06T13:39:52.247Z,12.80
2018-04-06T13:42:19.776Z,12.80
2018-04-06T13:44:47.285Z,12.70
2018-04-06T13:47:14.828Z,12.80
2018-04-06T13:49:42.330Z,12.90
2018-04-06T13:52:10.617Z,13.10
2018-04-06T13:54:38.152Z,13.00
2018-04-06T13:57:05.676Z,13.10
2018-04-06T13:59:33.184Z,13.00
2018-04-06T14:02:00.721Z,13.00
2018-04-06T14:04:28.224Z,13.00
2018-04-06T14:06:55.747Z,13.10
2018-04-06T14:09:23.244Z,13.00
2018-04-06T14:11:50.785Z,13.00
2018-04-06T14:14:19.043Z,13.30
2018-04-06T14:16:46.572Z,13.20
2018-04-06T14:19:14.079Z,13.30
2018-04-06T14:21:42.367Z,13.20
2018-04-06T14:24:09.872Z,13.10
2018-04-06T14:26:37.408Z,13.10
2018-04-06T14:29:04.904Z,13.00
2018-04-06T14:31:32.424Z,13.20
2018-04-06T14:33:59.919Z,13.40
2018-04-06T14:36:27.449Z,13.50
2018-04-06T14:38:54.950Z,13.60
2018-04-06T14:41:22.521Z,13.60
2018-04-06T14:43:50.788Z,13.70
2018-04-06T14:46:18.303Z,13.60
2018-04-06T14:48:45.812Z,13.60
2018-04-06T14:51:14.099Z,13.60
2018-04-06T14:53:42.373Z,13.50
2018-04-06T14:56:10.668Z,13.50
2018-04-06T14:58:38.172Z,13.50
2018-04-06T15:01:05.687Z,13.60
2018-04-06T15:03:33.190Z,13.60
2018-04-06T15:06:00.720Z,13.60
2018-04-06T15:08:28.219Z,13.50
2018-04-06T15:10:55.749Z,13.50
2018-04-06T15:13:23.265Z,13.70
2018-04-06T15:15:51.565Z,13.70
2018-04-06T15:18:19.310Z,13.60
2018-04-06T15:20:47.608Z,13.80
2018-04-06T15:23:15.121Z,13.70
2018-04-06T15:25:42.640Z,13.80
2018-04-06T15:28:10.152Z,13.80
2018-04-06T15:30:37.679Z,13.70
2018-04-06T15:33:05.175Z,13.70
2018-04-06T15:35:32.699Z,13.70
2018-04-06T15:38:00.214Z,13.70
2018-04-06T15:40:28.500Z,13.60
2018-04-06T15:42:57.003Z,13.60
2018-04-06T15:45:24.528Z,13.60
2018-04-06T15:47:52.793Z,13.60
2018-04-06T15:50:20.310Z,13.50
2018-04-06T15:52:47.804Z,13.60
2018-04-06T15:55:15.367Z,13.60
2018-04-06T15:57:42.856Z,13.50
2018-04-06T16:00:11.141Z,13.60
2018-04-06T16:02:38.656Z,13.60
2018-04-06T16:05:06.186Z,13.60
2018-04-06T16:07:33.748Z,13.60
2018-04-06T16:10:01.290Z,13.50
2018-04-06T16:12:28.807Z,13.50
2018-04-06T16:14:56.330Z,13.50
2018-04-06T16:17:23.841Z,13.50
2018-04-06T16:19:52.136Z,13.40
2018-04-06T16:22:19.644Z,13.30
2018-04-06T16:24:47.162Z,13.40
2018-04-06T16:27:14.683Z,13.30
2018-04-06T16:29:42.212Z,13.20
2018-04-06T16:32:09.772Z,13.10
2018-04-06T16:34:37.293Z,13.10
2018-04-06T16:37:04.802Z,13.00
2018-04-06T16:39:32.334Z,12.90
2018-04-06T16:41:59.847Z,12.90
2018-04-06T16:44:28.148Z,12.80
2018-04-06T16:46:55.664Z,12.70
2018-04-06T16:49:23.180Z,12.70
2018-04-06T16:51:52.682Z,12.60
2018-04-06T16:54:20.313Z,12.50
2018-04-06T16:56:48.592Z,12.40
2018-04-06T16:59:16.875Z,12.40
2018-04-06T17:01:44.388Z,12.40
2018-04-06T17:04:11.901Z,12.30
2018-04-06T17:06:40.160Z,12.30
2018-04-06T17:09:07.676Z,12.20
2018-04-06T17:11:35.178Z,12.20
2018-04-06T17:14:02.704Z,12.20
2018-04-06T17:16:30.203Z,12.10
2018-04-06T17:18:58.484Z,12.00
2018-04-06T17:21:26.750Z,11.90
2018-04-06T17:23:54.271Z,11.80
2018-04-06T17:26:21.779Z,11.90
2018-04-06T17:28:50.538Z,11.80
2018-04-06T17:31:18.068Z,11.60
2018-04-06T17:33:45.589Z,11.60
2018-04-06T17:36:13.863Z,11.50
2018-04-06T17:38:42.147Z,11.40
2018-04-06T17:41:10.412Z,11.30
2018-04-06T17:43:37.923Z,11.20
2018-04-06T17:46:05.416Z,11.30
2018-04-06T17:48:32.934Z,11.10
2018-04-06T17:51:00.434Z,11.10
2018-04-06T17:53:27.955Z,11.00
2018-04-06T17:55:55.452Z,11.00
2018-04-06T17:58:23.075Z,10.90
2018-04-06T18:00:50.679Z,10.80
2018-04-06T18:03:18.208Z,10.70
2018-04-06T18:05:45.723Z,10.80
2018-04-06T18:08:14.001Z,10.60
2018-04-06T18:10:42.288Z,10.60
2018-04-06T18:13:09.818Z,10.50
2018-04-06T18:15:37.319Z,10.50
2018-04-06T18:18:04.852Z,10.40
2018-04-06T18:20:33.126Z,10.20
2018-04-06T18:23:01.416Z,10.10
2018-04-06T18:25:28.915Z,10.00
2018-04-06T18:27:56.432Z,10.10
2018-04-06T18:30:24.694Z,9.90
2018-04-06T18:32:52.250Z,9.80
2018-04-06T18:35:20.520Z,9.80
2018-04-06T18:37:48.048Z,9.70
2018-04-06T18:40:15.548Z,9.80
2018-04-06T18:42:43.836Z,9.70
2018-04-06T18:45:12.110Z,9.70
2018-04-06T18:47:40.423Z,9.70
2018-04-06T18:50:07.938Z,9.60
2018-04-06T18:52:35.463Z,9.70
2018-04-06T18:55:02.975Z,9.60
2018-04-06T18:57:31.256Z,9.60
2018-04-06T18:59:59.515Z,9.50
2018-04-06T19:02:27.259Z,9.40
2018-04-06T19:04:54.768Z,9.40
2018-04-06T19:07:22.283Z,9.40
2018-04-06T19:09:49.783Z,9.40
2018-04-06T19:12:17.316Z,9.30
2018-04-06T19:14:44.815Z,9.30
2018-04-06T19:17:12.332Z,9.30
2018-04-06T19:19:39.827Z,9.20
2018-04-06T19:22:07.362Z,9.20
2018-04-06T19:24:35.629Z,9.10
2018-04-06T19:27:03.143Z,9.00
2018-04-06T19:29:30.636Z,9.00
2018-04-06T19:31:58.159Z,9.00
2018-04-06T19:34:25.735Z,9.00
2018-04-06T19:36:53.977Z,9.00
2018-04-06T19:39:21.485Z,8.90
2018-04-06T19:41:49.010Z,9.00
2018-04-06T19:44:16.511Z,8.90
2018-04-06T19:46:44.007Z,8.90
2018-04-06T19:49:12.291Z,8.90
2018-04-06T19:51:39.845Z,8.80
2018-04-06T19:54:07.368Z,8.80
2018-04-06T19:56:34.884Z,8.80
2018-04-06T19:59:02.412Z,8.70
2018-04-06T20:01:30.680Z,8.70
2018-04-06T20:03:58.225Z,8.60
2018-04-06T20:06:25.743Z,8.70
2018-04-06T20:08:53.262Z,8.70
2018-04-06T20:11:20.766Z,8.60
2018-04-06T20:13:48.271Z,8.50
2018-04-06T20:16:15.812Z,8.50
2018-04-06T20:18:43.315Z,8.50
2018-04-06T20:21:10.837Z,8.50
2018-04-06T20:23:38.331Z,8.50
2018-04-06T20:26:06.605Z,8.40
2018-04-06T20:28:34.122Z,8.30
2018-04-06T20:31:01.631Z,8.40
2018-04-06T20:33:29.925Z,8.30
2018-04-06T20:35:57.416Z,8.20
2018-04-06T20:38:24.927Z,8.30
2018-04-06T20:40:53.188Z,8.30
2018-04-06T20:43:20.697Z,8.20
2018-04-06T20:45:48.207Z,8.30
2018-04-06T20:48:15.710Z,8.30
2018-04-06T20:50:43.239Z,8.20
2018-04-06T20:53:11.516Z,8.20
2018-04-06T20:55:39.798Z,8.20
2018-04-06T20:58:08.092Z,8.10
2018-04-06T21:00:35.610Z,8.00
2018-04-06T21:03:03.115Z,8.10
2018-04-06T21:05:30.633Z,8.10
2018-04-06T21:07:58.251Z,8.00
2018-04-06T21:10:25.812Z,8.10
2018-04-06T21:12:53.303Z,8.00
2018-04-06T21:15:20.819Z,7.90
2018-04-06T21:17:48.317Z,7.80
2018-04-06T21:20:15.860Z,7.80
2018-04-06T21:22:43.362Z,7.80
2018-04-06T21:25:11.659Z,7.80
2018-04-06T21:27:39.155Z,7.70
2018-04-06T21:30:06.671Z,7.80
2018-04-06T21:32:34.937Z,7.90
2018-04-06T21:35:03.227Z,7.80
2018-04-06T21:37:30.728Z,7.70
2018-04-06T21:39:59.255Z,7.80
2018-04-06T21:42:27.524Z,7.80
2018-04-06T21:44:55.036Z,7.70
2018-04-06T21:47:22.536Z,7.80
2018-04-06T21:49:50.052Z,7.80
2018-04-06T21:52:17.553Z,7.70
2018-04-06T21:54:45.060Z,7.70
2018-04-06T21:57:12.556Z,7.70
2018-04-06T21:59:40.077Z,7.70
2018-04-06T22:02:07.577Z,7.70
2018-04-06T22:04:35.087Z,7.70
2018-04-06T22:07:03.352Z,7.70
2018-04-06T22:09:31.647Z,7.60
2018-04-06T22:11:59.142Z,7.50
2018-04-06T22:14:26.655Z,7.60
2018-04-06T22:16:54.916Z,7.60
2018-04-06T22:19:22.574Z,7.50
2018-04-06T22:21:50.068Z,7.60
2018-04-06T22:24:17.591Z,7.50
2018-04-06T22:26:45.907Z,7.60
2018-04-06T22:29:14.181Z,7.50
2018-04-06T22:31:41.679Z,7.40
2018-04-06T22:34:09.199Z,7.50
2018-04-06T22:36:36.685Z,7.50
2018-04-06T22:39:04.190Z,7.50
2018-04-06T22:41:31.678Z,7.60
2018-04-06T22:43:59.187Z,7.50
2018-04-06T22:46:26.686Z,7.50
2018-04-06T22:48:54.969Z,7.50
2018-04-06T22:51:22.460Z,7.40
2018-04-06T22:53:49.965Z,7.40
2018-04-06T22:56:17.453Z,7.40
2018-04-06T22:58:44.967Z,7.40
2018-04-06T23:01:12.459Z,7.50
2018-04-06T23:03:40.011Z,7.40
2018-04-06T23:06:08.281Z,7.40
2018-04-06T23:08:36.563Z,7.40
2018-04-06T23:11:04.828Z,7.30
2018-04-06T23:13:32.339Z,7.30
2018-04-06T23:15:59.842Z,7.30
2018-04-06T23:18:27.358Z,7.30
2018-04-06T23:20:54.859Z,7.30
2018-04-06T23:23:22.367Z,7.30
2018-04-06T23:25:49.861Z,7.30
2018-04-06T23:28:17.387Z,7.30
2018-04-06T23:30:44.883Z,7.30
2018-04-06T23:33:13.421Z,7.30
2018-04-06T23:35:41.112Z,7.20
2018-04-06T23:38:08.612Z,7.20
2018-04-06T23:40:36.135Z,7.20
2018-04-06T23:43:03.635Z,7.10
2018-04-06T23:45:31.938Z,7.00
2018-04-06T23:47:59.437Z,7.00
2018-04-06T23:50:26.947Z,7.00
2018-04-06T23:52:55.210Z,7.00
2018-04-06T23:55:23.471Z,7.00
2018-04-06T23:57:50.987Z,6.90
